Time;durP1;ratioP1;P1;durP2;ratioP2;P2;SDS_P1;SDS_P2;PMS_P1;PMS_P2;Temp;Humidity;BMP_temperature;BMP_pressure;BME280_temperature;BME280_humidity;BME280_pressure;Samples;Min_cycle;Max_cycle;Signal;HPM_P1;HPM_P2
2024/01/26 00:01:29;;;;;;;1.90;1.00;;;9.10;34.90;;;;;;4936850;29;20410;-68
2024/01/26 00:03:57;;;;;;;3.33;0.90;;;9.20;34.20;;;;;;4935329;29;20186;-68
2024/01/26 00:06:23;;;;;;;2.10;1.20;;;9.20;33.30;;;;;;4936354;29;20313;-69
2024/01/26 00:08:49;;;;;;;2.20;1.10;;;9.20;33.60;;;;;;4936689;29;20985;-69
2024/01/26 00:11:16;;;;;;;2.23;1.20;;;9.20;32.20;;;;;;4936790;29;20415;-69
2024/01/26 00:13:41;;;;;;;1.87;1.00;;;9.20;33.70;;;;;;4936691;29;20247;-69
2024/01/26 00:16:07;;;;;;;2.27;1.60;;;9.20;33.50;;;;;;4936283;29;20434;-68
2024/01/26 00:18:32;;;;;;;2.73;1.43;;;9.20;32.90;;;;;;4936505;29;20183;-68
2024/01/26 00:20:59;;;;;;;2.90;1.90;;;9.10;33.30;;;;;;4936351;29;20179;-68
2024/01/26 00:23:24;;;;;;;2.67;1.43;;;9.00;35.00;;;;;;4951238;29;20191;-68
2024/01/26 00:25:50;;;;;;;3.77;1.17;;;9.00;35.20;;;;;;4934809;29;20438;-69
2024/01/26 00:28:15;;;;;;;2.87;1.70;;;9.10;36.40;;;;;;4936421;29;20182;-69
2024/01/26 00:30:41;;;;;;;2.27;1.40;;;9.10;35.90;;;;;;4936318;29;20200;-69
2024/01/26 00:33:07;;;;;;;2.40;1.47;;;9.20;35.00;;;;;;4936017;29;20701;-70
2024/01/26 00:35:32;;;;;;;2.23;1.33;;;9.20;34.50;;;;;;4935653;29;20205;-68
2024/01/26 00:37:58;;;;;;;1.90;1.00;;;9.20;35.30;;;;;;4935637;29;20179;-68
2024/01/26 00:40:23;;;;;;;2.67;1.57;;;9.20;32.40;;;;;;4936305;29;20190;-69
2024/01/26 00:42:49;;;;;;;1.80;1.03;;;9.30;32.60;;;;;;4936283;29;20638;-70
2024/01/26 00:45:15;;;;;;;2.20;1.23;;;9.20;31.80;;;;;;4935893;29;20238;-69
2024/01/26 00:47:40;;;;;;;4.50;1.20;;;9.20;32.70;;;;;;4936061;29;20191;-69
2024/01/26 00:50:06;;;;;;;2.33;1.17;;;9.20;31.70;;;;;;4935749;29;20186;-69
2024/01/26 00:52:32;;;;;;;3.17;1.40;;;9.10;31.10;;;;;;4935843;29;20297;-69
2024/01/26 00:54:58;;;;;;;1.80;0.90;;;9.20;31.20;;;;;;4935590;29;20462;-70
2024/01/26 00:57:23;;;;;;;1.97;1.30;;;9.30;29.50;;;;;;4935804;29;20186;-69
2024/01/26 00:59:49;;;;;;;5.20;0.93;;;9.30;31.30;;;;;;4935558;29;20182;-69
2024/01/26 01:02:14;;;;;;;2.23;1.00;;;9.30;29.00;;;;;;4935562;29;20179;-69
2024/01/26 01:04:40;;;;;;;2.20;1.20;;;9.30;28.70;;;;;;4935343;29;20266;-68
2024/01/26 01:07:06;;;;;;;1.90;0.97;;;9.40;29.30;;;;;;4936046;29;20233;-69
2024/01/26 01:09:33;;;;;;;2.40;1.37;;;9.40;27.50;;;;;;4935450;29;20506;-69
2024/01/26 01:11:59;;;;;;;5.47;1.13;;;9.40;27.80;;;;;;4935394;29;20278;-69
2024/01/26 01:14:24;;;;;;;2.33;1.10;;;9.40;27.70;;;;;;4935375;29;20970;-68
2024/01/26 01:16:50;;;;;;;3.07;1.17;;;9.40;27.10;;;;;;4935358;29;20242;-69
2024/01/26 01:19:16;;;;;;;3.30;1.63;;;9.40;26.30;;;;;;4935214;29;20195;-69
2024/01/26 01:21:41;;;;;;;2.37;1.10;;;9.40;25.80;;;;;;4935396;29;20534;-69
2024/01/26 01:24:07;;;;;;;2.20;1.13;;;9.40;24.90;;;;;;4935216;29;20421;-69
2024/01/26 01:26:33;;;;;;;2.63;1.00;;;9.30;25.00;;;;;;4935081;29;20225;-69
2024/01/26 01:28:58;;;;;;;1.70;0.70;;;9.30;24.30;;;;;;4935063;29;20186;-68
2024/01/26 01:31:24;;;;;;;2.20;1.00;;;9.30;25.50;;;;;;4935325;29;20261;-69
2024/01/26 01:33:50;;;;;;;1.90;0.80;;;9.20;25.00;;;;;;4935198;29;20214;-70
2024/01/26 01:36:15;;;;;;;2.40;1.00;;;9.20;24.70;;;;;;4934875;29;20190;-68
2024/01/26 01:38:41;;;;;;;8.13;5.20;;;9.10;25.50;;;;;;4934839;29;20182;-68
2024/01/26 01:41:07;;;;;;;7.67;4.20;;;9.10;24.60;;;;;;4934952;29;20214;-69
2024/01/26 01:43:32;;;;;;;5.30;3.43;;;9.00;25.80;;;;;;4933849;29;20551;-69
2024/01/26 01:45:58;;;;;;;4.90;1.70;;;8.90;26.80;;;;;;4934876;29;20571;-69
2024/01/26 01:48:23;;;;;;;3.30;1.97;;;8.80;26.90;;;;;;4935208;29;20190;-69
2024/01/26 01:50:49;;;;;;;2.07;1.43;;;8.80;27.50;;;;;;4934787;29;20230;-69
2024/01/26 01:53:15;;;;;;;2.87;1.73;;;8.80;28.00;;;;;;4934984;29;20683;-68
2024/01/26 01:55:44;;;;;;;2.37;1.10;;;8.90;27.30;;;;;;4934599;29;20206;-68
2024/01/26 01:58:09;;;;;;;2.20;1.10;;;8.90;26.80;;;;;;4934863;29;20174;-68
2024/01/26 02:00:36;;;;;;;2.17;1.03;;;9.00;27.10;;;;;;4934804;29;20506;-68
2024/01/26 02:03:02;;;;;;;3.17;0.93;;;9.10;25.90;;;;;;4933287;29;20253;-70
2024/01/26 02:05:28;;;;;;;2.07;0.97;;;9.20;26.00;;;;;;4934293;29;20470;-69
2024/01/26 02:07:53;;;;;;;2.27;1.13;;;9.20;24.00;;;;;;4934511;29;20234;-69
2024/01/26 02:10:19;;;;;;;5.83;1.53;;;9.10;24.80;;;;;;4934565;29;20191;-70
2024/01/26 02:12:45;;;;;;;1.80;0.80;;;9.20;24.40;;;;;;4934551;29;20210;-69
2024/01/26 02:15:11;;;;;;;1.80;0.97;;;9.20;23.60;;;;;;4934286;29;20783;-69
2024/01/26 02:17:39;;;;;;;1.87;0.90;;;9.30;23.50;;;;;;4934422;29;20222;-69
2024/01/26 02:20:05;;;;;;;5.10;1.40;;;9.30;23.00;;;;;;4934508;29;20258;-70
2024/01/26 02:22:31;;;;;;;2.00;1.10;;;9.40;22.90;;;;;;4934318;29;20461;-68
2024/01/26 02:24:56;;;;;;;2.73;0.97;;;9.40;22.90;;;;;;4934233;29;20430;-69
2024/01/26 02:27:23;;;;;;;1.57;0.70;;;9.40;23.10;;;;;;4934452;29;20281;-69
2024/01/26 02:29:48;;;;;;;1.93;1.07;;;9.40;21.70;;;;;;4934339;29;20186;-69
2024/01/26 02:32:14;;;;;;;1.50;0.60;;;9.40;21.50;;;;;;4932832;29;20428;-69
2024/01/26 02:34:40;;;;;;;2.33;1.10;;;9.30;21.10;;;;;;4934132;29;20258;-68
2024/01/26 02:37:06;;;;;;;2.80;0.80;;;9.30;22.00;;;;;;4934301;29;20201;-67
2024/01/26 02:53:00;;;;;;;1.77;0.77;;;9.20;21.50;;;;;;4933861;29;20529;-68
2024/01/26 02:55:25;;;;;;;2.53;1.37;;;9.30;21.50;;;;;;4948381;28;20450;-69
2024/01/26 02:57:51;;;;;;;2.47;1.07;;;9.30;21.30;;;;;;4934319;29;20183;-70
2024/01/26 03:00:16;;;;;;;2.30;1.20;;;9.20;20.90;;;;;;4936125;29;20179;-69
2024/01/26 03:02:42;;;;;;;2.63;0.77;;;9.20;22.10;;;;;;4937923;29;20222;-68
2024/01/26 03:05:08;;;;;;;2.77;1.20;;;9.20;20.60;;;;;;4937587;29;20210;-69
2024/01/26 03:07:33;;;;;;;1.97;0.90;;;9.20;20.70;;;;;;4937484;29;20209;-69
2024/01/26 03:09:59;;;;;;;2.13;0.93;;;9.20;20.20;;;;;;4937619;29;20187;-69
2024/01/26 03:12:24;;;;;;;2.03;0.80;;;9.20;20.30;;;;;;4937533;29;20624;-69
2024/01/26 03:14:52;;;;;;;1.70;0.70;;;9.30;19.30;;;;;;4937388;29;20544;-69
2024/01/26 03:17:17;;;;;;;1.70;0.57;;;9.30;19.80;;;;;;4937479;29;20174;-68
2024/01/26 03:19:43;;;;;;;1.50;0.70;;;9.30;20.10;;;;;;4936122;29;20426;-68
2024/01/26 03:22:08;;;;;;;3.30;0.90;;;9.20;19.50;;;;;;4936056;29;20178;-69
2024/01/26 03:24:34;;;;;;;1.73;0.77;;;9.20;19.10;;;;;;4937266;29;20179;-69
2024/01/26 03:27:00;;;;;;;2.10;0.77;;;9.20;20.10;;;;;;4937630;29;20198;-69
2024/01/26 03:29:25;;;;;;;1.90;0.60;;;9.20;19.00;;;;;;4937386;29;20179;-69
2024/01/26 03:31:50;;;;;;;2.33;0.70;;;9.20;18.60;;;;;;4937410;29;20476;-67
2024/01/26 03:34:16;;;;;;;1.40;0.50;;;9.20;18.60;;;;;;4937354;29;20199;-68
2024/01/26 03:36:41;;;;;;;2.40;0.67;;;9.20;18.40;;;;;;4937153;29;20206;-69
2024/01/26 03:39:09;;;;;;;1.50;0.60;;;9.20;18.20;;;;;;4937195;29;20177;-69
2024/01/26 03:41:39;;;;;;;1.60;0.60;;;9.20;17.20;;;;;;4937388;29;20281;-69
2024/01/26 03:44:05;;;;;;;1.50;0.50;;;9.20;17.30;;;;;;4937144;29;20426;-68
2024/01/26 03:46:30;;;;;;;1.50;0.40;;;9.20;16.20;;;;;;4936992;29;20445;-69
2024/01/26 03:48:56;;;;;;;1.90;0.60;;;9.30;16.30;;;;;;4937162;29;20190;-69
2024/01/26 03:51:21;;;;;;;2.63;0.50;;;9.30;15.60;;;;;;4936974;29;20593;-69
2024/01/26 03:53:47;;;;;;;2.20;0.73;;;9.30;14.40;;;;;;4951720;29;20213;-69
2024/01/26 03:56:12;;;;;;;1.60;0.50;;;9.40;14.40;;;;;;4936953;29;20575;-69
2024/01/26 03:58:38;;;;;;;1.50;0.50;;;9.40;14.00;;;;;;4937097;29;20363;-69
2024/01/26 04:01:04;;;;;;;1.73;0.63;;;9.40;13.20;;;;;;4936996;29;20183;-68
2024/01/26 04:03:29;;;;;;;1.60;0.53;;;9.40;13.80;;;;;;4936842;29;20190;-68
2024/01/26 04:05:55;;;;;;;1.67;0.60;;;9.40;14.40;;;;;;4936454;29;20221;-69
2024/01/26 04:08:20;;;;;;;1.50;0.53;;;9.40;13.10;;;;;;4936761;29;20552;-69
2024/01/26 04:10:46;;;;;;;1.60;0.77;;;9.40;13.30;;;;;;4935807;29;20218;-69
2024/01/26 04:13:11;;;;;;;1.50;0.60;;;9.40;13.60;;;;;;4936355;29;20202;-69
2024/01/26 04:15:37;;;;;;;1.80;0.70;;;9.30;13.10;;;;;;4936550;29;20194;-69
2024/01/26 04:18:03;;;;;;;1.50;0.60;;;9.30;12.10;;;;;;4936668;29;20642;-70
2024/01/26 04:20:28;;;;;;;1.80;0.60;;;9.30;12.40;;;;;;4936512;29;20186;-70
2024/01/26 04:22:53;;;;;;;1.80;0.80;;;9.30;11.50;;;;;;4936476;29;20183;-67
2024/01/26 04:25:19;;;;;;;2.53;0.60;;;9.30;11.70;;;;;;4934974;29;20202;-69
2024/01/26 04:27:45;;;;;;;1.73;0.70;;;9.20;11.50;;;;;;4936232;29;20182;-69
2024/01/26 04:30:11;;;;;;;2.47;0.60;;;9.30;12.40;;;;;;4936304;29;20186;-69
2024/01/26 04:32:36;;;;;;;1.70;0.70;;;9.40;11.50;;;;;;4936237;29;20582;-68
2024/01/26 04:35:02;;;;;;;2.70;0.70;;;9.40;11.00;;;;;;4936009;29;20453;-68
2024/01/26 04:37:28;;;;;;;1.40;0.50;;;9.30;11.60;;;;;;4936164;29;20186;-68
2024/01/26 04:39:53;;;;;;;1.60;0.60;;;9.30;11.60;;;;;;4936071;29;20253;-68
2024/01/26 04:42:19;;;;;;;1.70;0.70;;;9.30;12.10;;;;;;4936040;29;20457;-68
2024/01/26 04:44:44;;;;;;;2.00;0.83;;;9.30;11.50;;;;;;4935829;29;20190;-69
2024/01/26 04:47:10;;;;;;;2.43;0.90;;;9.30;11.50;;;;;;4935960;29;20179;-68
2024/01/26 04:49:35;;;;;;;1.60;0.53;;;9.40;11.40;;;;;;4936018;29;20185;-68
2024/01/26 04:52:01;;;;;;;1.40;0.40;;;9.30;10.90;;;;;;4936093;29;20179;-69
2024/01/26 04:54:27;;;;;;;1.90;0.67;;;9.30;11.50;;;;;;4935961;29;20233;-69
2024/01/26 04:56:52;;;;;;;1.97;0.77;;;9.30;11.60;;;;;;4935777;29;20198;-69
2024/01/26 04:59:18;;;;;;;2.00;0.83;;;9.30;11.50;;;;;;4935798;29;20182;-69
2024/01/26 05:01:44;;;;;;;1.80;0.60;;;9.40;11.50;;;;;;4935929;29;20182;-69
2024/01/26 05:04:09;;;;;;;4.60;0.70;;;9.40;10.90;;;;;;4935932;29;20191;-69
2024/01/26 05:06:35;;;;;;;1.70;0.60;;;9.40;10.60;;;;;;4935765;29;20217;-70
2024/01/26 05:09:01;;;;;;;3.23;0.90;;;9.40;10.20;;;;;;4935738;29;20179;-69
2024/01/26 05:11:26;;;;;;;1.70;0.80;;;9.50;10.20;;;;;;4935524;29;20193;-69
2024/01/26 05:13:52;;;;;;;2.93;0.90;;;9.50;10.10;;;;;;4935918;29;20237;-69
2024/01/26 05:16:17;;;;;;;2.53;0.60;;;9.50;10.90;;;;;;4935601;29;20195;-68
2024/01/26 05:18:43;;;;;;;2.37;1.00;;;9.50;10.90;;;;;;4935383;29;20175;-68
2024/01/26 05:21:08;;;;;;;2.00;0.73;;;9.50;10.40;;;;;;4935540;29;20171;-67
2024/01/26 05:23:34;;;;;;;2.03;0.80;;;9.50;10.60;;;;;;4935276;29;20669;-69
2024/01/26 05:25:59;;;;;;;2.10;0.70;;;9.50;10.10;;;;;;4935121;29;20574;-70
2024/01/26 05:28:25;;;;;;;1.60;0.70;;;9.50;10.10;;;;;;4935169;29;20661;-69
2024/01/26 05:30:50;;;;;;;1.90;0.90;;;9.60;10.20;;;;;;4935945;29;20205;-70
2024/01/26 05:33:16;;;;;;;3.47;1.27;;;9.60;10.20;;;;;;4935158;29;20212;-69
2024/01/26 05:35:41;;;;;;;3.00;0.90;;;9.60;10.10;;;;;;4934988;29;20538;-70
2024/01/26 05:38:07;;;;;;;1.70;0.73;;;9.70;9.40;;;;;;4935064;29;20178;-68
2024/01/26 05:40:32;;;;;;;2.50;0.70;;;9.70;9.00;;;;;;4935221;29;20249;-68
2024/01/26 05:42:58;;;;;;;1.80;0.87;;;9.70;9.60;;;;;;4935136;29;20261;-69
2024/01/26 05:45:24;;;;;;;1.70;0.60;;;9.80;9.40;;;;;;4934893;29;20378;-69
2024/01/26 05:47:49;;;;;;;2.00;0.70;;;9.80;10.30;;;;;;4935202;29;20437;-68
2024/01/26 05:50:15;;;;;;;1.87;0.70;;;9.80;10.30;;;;;;4934806;29;20174;-68
2024/01/26 05:52:41;;;;;;;1.67;0.70;;;9.70;11.70;;;;;;4933602;29;20210;-68
2024/01/26 05:55:07;;;;;;;1.90;0.60;;;9.70;11.70;;;;;;4935088;29;20449;-68
2024/01/26 05:57:33;;;;;;;2.10;0.90;;;9.70;11.00;;;;;;4935073;29;20200;-68
2024/01/26 05:59:59;;;;;;;2.10;0.90;;;9.70;11.50;;;;;;4935079;29;20505;-68
2024/01/26 06:02:25;;;;;;;1.60;0.70;;;9.70;11.50;;;;;;4934698;29;20261;-69
2024/01/26 06:04:51;;;;;;;2.00;0.90;;;9.60;11.30;;;;;;4934907;29;20232;-69
2024/01/26 06:07:16;;;;;;;2.10;0.80;;;9.60;12.80;;;;;;4935108;29;20411;-69
2024/01/26 06:09:42;;;;;;;2.67;0.90;;;9.60;12.40;;;;;;4934627;29;20181;-69
2024/01/26 06:12:07;;;;;;;2.07;0.70;;;9.60;12.10;;;;;;4934535;29;20174;-68
2024/01/26 06:14:35;;;;;;;2.30;0.70;;;9.60;11.30;;;;;;4934586;29;20186;-68
2024/01/26 06:17:01;;;;;;;1.90;1.23;;;9.50;11.70;;;;;;4934877;29;20303;-68
2024/01/26 06:19:26;;;;;;;1.83;0.87;;;9.60;11.90;;;;;;4934754;29;20414;-68
2024/01/26 06:21:52;;;;;;;1.90;0.70;;;9.60;10.30;;;;;;4934600;29;20414;-69
2024/01/26 06:24:18;;;;;;;1.70;0.67;;;9.70;10.20;;;;;;4934870;29;20190;-68
2024/01/26 06:26:43;;;;;;;1.57;0.50;;;9.70;10.20;;;;;;4934986;29;20564;-69
2024/01/26 06:29:09;;;;;;;1.70;0.80;;;9.70;10.20;;;;;;4934387;29;20249;-69
2024/01/26 06:31:34;;;;;;;1.57;0.50;;;9.80;9.60;;;;;;4934544;29;20182;-70
2024/01/26 06:34:00;;;;;;;2.80;0.50;;;9.90;8.40;;;;;;4934450;29;20672;-70
2024/01/26 06:36:25;;;;;;;1.60;0.50;;;9.90;8.20;;;;;;4938355;29;20230;-69
2024/01/26 06:38:51;;;;;;;1.50;0.50;;;10.00;7.60;;;;;;4938349;29;20642;-69
2024/01/26 06:41:16;;;;;;;1.87;0.67;;;10.00;6.50;;;;;;4938420;29;20293;-70
2024/01/26 06:43:47;;;;;;;1.90;0.80;;;10.10;6.10;;;;;;4938351;29;20209;-68
2024/01/26 06:46:12;;;;;;;5.00;1.13;;;10.10;6.90;;;;;;4938193;29;20578;-68
2024/01/26 06:48:38;;;;;;;2.00;0.70;;;10.10;6.60;;;;;;4938518;29;20747;-69
2024/01/26 06:51:05;;;;;;;1.80;0.70;;;10.10;6.70;;;;;;4938221;29;20182;-68
2024/01/26 06:53:30;;;;;;;1.70;0.70;;;10.10;5.90;;;;;;4937916;29;20338;-69
2024/01/26 06:55:56;;;;;;;1.50;0.60;;;10.00;6.10;;;;;;4937954;29;20474;-69
2024/01/26 06:58:21;;;;;;;2.93;0.83;;;10.10;5.70;;;;;;4937955;29;20689;-68
2024/01/26 07:00:47;;;;;;;1.70;0.63;;;10.10;5.80;;;;;;4937787;29;20261;-69
2024/01/26 07:03:12;;;;;;;1.70;0.53;;;10.10;6.10;;;;;;4937820;29;20186;-69
2024/01/26 07:05:38;;;;;;;2.07;0.70;;;10.10;6.10;;;;;;4937843;29;20249;-70
2024/01/26 07:08:04;;;;;;;1.80;0.87;;;10.10;6.00;;;;;;4937896;29;20230;-70
2024/01/26 07:10:29;;;;;;;1.70;0.70;;;10.10;5.90;;;;;;4938200;29;20242;-70
2024/01/26 07:12:55;;;;;;;1.60;0.63;;;10.10;6.00;;;;;;4937970;29;20458;-70
2024/01/26 07:15:20;;;;;;;3.90;0.83;;;10.10;6.00;;;;;;4938083;29;20202;-71
2024/01/26 07:17:46;;;;;;;2.27;0.83;;;10.20;6.00;;;;;;4938649;29;20242;-71
2024/01/26 07:20:12;;;;;;;1.97;0.70;;;10.20;6.20;;;;;;4937919;29;20175;-69
2024/01/26 07:22:37;;;;;;;3.20;0.60;;;10.20;4.80;;;;;;4938285;29;20171;-69
2024/01/26 07:25:09;;;;;;;1.60;0.50;;;10.20;5.10;;;;;;4938084;29;20226;-69
2024/01/26 07:27:35;;;;;;;3.47;0.93;;;10.30;5.30;;;;;;4937842;29;20654;-71
2024/01/26 07:30:05;;;;;;;1.77;0.80;;;10.30;5.00;;;;;;4937501;29;20426;-71
2024/01/26 07:32:31;;;;;;;1.60;0.60;;;10.30;5.40;;;;;;4937704;29;20284;-70
2024/01/26 07:34:56;;;;;;;2.10;0.70;;;10.40;4.40;;;;;;4938241;29;20434;-70
2024/01/26 07:37:22;;;;;;;2.53;0.80;;;10.40;4.50;;;;;;4937527;29;20655;-69
2024/01/26 07:39:48;;;;;;;1.67;0.77;;;10.50;4.40;;;;;;4937710;29;20317;-69
2024/01/26 07:42:13;;;;;;;1.87;0.73;;;10.50;5.00;;;;;;4938073;29;20183;-72
2024/01/26 07:44:39;;;;;;;2.13;0.70;;;10.50;4.00;;;;;;4937611;29;20201;-71
2024/01/26 07:47:04;;;;;;;2.23;0.90;;;10.50;4.20;;;;;;4937654;29;20551;-71
2024/01/26 07:49:30;;;;;;;2.20;1.33;;;10.50;4.50;;;;;;4937202;29;20258;-68
2024/01/26 07:51:55;;;;;;;1.60;0.60;;;10.50;4.70;;;;;;4937221;29;20187;-69
2024/01/26 07:54:21;;;;;;;2.57;1.13;;;10.60;3.70;;;;;;4951609;29;20258;-69
2024/01/26 07:56:46;;;;;;;1.67;0.80;;;10.60;3.50;;;;;;4937286;29;20196;-69
2024/01/26 07:59:12;;;;;;;2.63;1.10;;;10.70;3.30;;;;;;4937109;29;20234;-68
2024/01/26 08:01:37;;;;;;;1.67;0.70;;;10.70;3.30;;;;;;4937170;29;20555;-71
2024/01/26 08:04:03;;;;;;;1.50;0.40;;;10.70;2.90;;;;;;4937198;29;20222;-69
2024/01/26 08:06:29;;;;;;;2.10;0.70;;;10.80;2.80;;;;;;4936217;29;20225;-69
2024/01/26 08:08:54;;;;;;;1.70;0.60;;;10.90;2.60;;;;;;4931514;29;20495;-69
2024/01/26 08:11:20;;;;;;;2.87;0.80;;;11.00;2.20;;;;;;4933175;29;20673;-69
2024/01/26 08:13:45;;;;;;;2.30;1.00;;;11.10;1.50;;;;;;4933679;29;20214;-69
2024/01/26 08:16:15;;;;;;;1.80;0.93;;;11.10;1.90;;;;;;4932784;29;20581;-70
2024/01/26 08:18:41;;;;;;;1.93;0.70;;;11.30;1.60;;;;;;4929811;29;20186;-69
2024/01/26 08:21:07;;;;;;;2.70;0.70;;;11.20;1.20;;;;;;4933556;29;20492;-69
2024/01/26 08:23:32;;;;;;;2.13;0.90;;;11.20;1.00;;;;;;4938946;29;20186;-69
2024/01/26 08:25:58;;;;;;;2.00;0.93;;;11.30;1.60;;;;;;4934688;29;20214;-70
2024/01/26 08:28:24;;;;;;;3.20;1.10;;;11.40;1.00;;;;;;4936251;29;20670;-69
2024/01/26 08:30:49;;;;;;;4.53;1.30;;;11.40;1.10;;;;;;4931660;29;20285;-70
2024/01/26 08:33:15;;;;;;;1.60;0.50;;;11.50;1.00;;;;;;4933079;29;20222;-70
2024/01/26 08:35:40;;;;;;;1.70;0.70;;;11.50;1.00;;;;;;4934568;29;20219;-70
2024/01/26 08:38:06;;;;;;;2.10;0.70;;;11.60;1.00;;;;;;4934681;29;20186;-70
2024/01/26 08:40:31;;;;;;;2.00;0.90;;;11.60;1.00;;;;;;4933697;29;20187;-69
2024/01/26 08:42:57;;;;;;;1.77;0.80;;;11.70;1.00;;;;;;4933385;29;20266;-71
2024/01/26 08:45:22;;;;;;;1.93;0.90;;;11.60;1.00;;;;;;4933160;29;20315;-70
2024/01/26 08:47:48;;;;;;;6.10;1.67;;;11.60;1.00;;;;;;4932805;29;20531;-70
2024/01/26 08:50:14;;;;;;;2.20;1.20;;;11.80;1.00;;;;;;4933902;29;20189;-69
2024/01/26 08:52:39;;;;;;;2.43;0.90;;;11.90;1.00;;;;;;4936653;29;20243;-69
2024/01/26 08:55:05;;;;;;;2.13;0.90;;;11.80;1.00;;;;;;4936220;29;20200;-69
2024/01/26 08:57:31;;;;;;;2.50;1.03;;;11.80;1.00;;;;;;4935750;29;20187;-68
2024/01/26 08:59:57;;;;;;;2.90;1.00;;;11.70;1.00;;;;;;4936893;29;20921;-69
2024/01/26 09:02:22;;;;;;;4.13;1.90;;;11.70;1.00;;;;;;4937132;29;20636;-70
2024/01/26 09:04:48;;;;;;;1.90;1.00;;;11.90;1.00;;;;;;4936970;29;20408;-71
2024/01/26 09:07:17;;;;;;;2.23;0.93;;;12.00;1.00;;;;;;4936937;29;20582;-72
2024/01/26 09:09:43;;;;;;;4.23;1.17;;;12.10;1.00;;;;;;4936686;29;20275;-70
2024/01/26 09:12:08;;;;;;;1.60;0.70;;;12.10;1.00;;;;;;4935850;29;20458;-70
2024/01/26 09:14:34;;;;;;;4.00;1.40;;;12.20;1.00;;;;;;4935772;29;20632;-70
2024/01/26 09:17:00;;;;;;;2.67;1.47;;;12.20;1.00;;;;;;4936064;29;20542;-68
2024/01/26 09:19:26;;;;;;;3.37;1.10;;;12.40;1.00;;;;;;4935397;29;20175;-68
2024/01/26 09:21:51;;;;;;;2.40;1.17;;;12.20;1.00;;;;;;4935437;29;20424;-69
2024/01/26 09:24:17;;;;;;;4.30;1.30;;;12.10;1.00;;;;;;4935232;29;20205;-69
2024/01/26 09:26:42;;;;;;;2.47;1.30;;;12.20;1.00;;;;;;4935308;29;20606;-68
2024/01/26 09:29:08;;;;;;;2.53;1.10;;;12.20;1.00;;;;;;4935130;29;20197;-69
2024/01/26 09:31:33;;;;;;;1.90;0.97;;;12.40;1.00;;;;;;4934105;29;20193;-69
2024/01/26 09:33:59;;;;;;;2.10;1.10;;;12.40;1.00;;;;;;4935129;29;20647;-69
2024/01/26 09:36:25;;;;;;;2.47;1.30;;;12.60;1.00;;;;;;4935230;29;20530;-69
2024/01/26 09:38:50;;;;;;;2.10;1.03;;;12.40;1.00;;;;;;4935423;29;20195;-68
2024/01/26 09:41:16;;;;;;;3.50;1.50;;;12.30;1.00;;;;;;4935158;29;20175;-68
2024/01/26 09:43:42;;;;;;;2.00;1.23;;;12.40;1.00;;;;;;4935106;29;20261;-70
2024/01/26 09:46:08;;;;;;;2.27;1.30;;;12.60;1.00;;;;;;4934956;29;20475;-69
2024/01/26 09:48:34;;;;;;;2.17;0.80;;;12.50;1.00;;;;;;4935014;29;20679;-69
2024/01/26 09:51:00;;;;;;;1.90;1.10;;;;;;;;;;4935493;29;20513;-69
2024/01/26 09:53:27;;;;;;;2.67;1.50;;;12.50;1.00;;;;;;4935053;29;20297;-69
2024/01/26 09:55:54;;;;;;;2.00;0.93;;;12.10;1.00;;;;;;4935858;29;20430;-69
2024/01/26 09:58:20;;;;;;;2.93;1.30;;;12.30;1.00;;;;;;4935801;29;20430;-70
2024/01/26 10:00:46;;;;;;;2.63;1.43;;;12.10;1.00;;;;;;4935180;29;20418;-70
2024/01/26 10:03:12;;;;;;;5.80;2.13;;;12.10;1.00;;;;;;4935000;29;20432;-70
2024/01/26 10:05:38;;;;;;;2.93;0.90;;;12.20;1.00;;;;;;4936291;29;20461;-68
2024/01/26 10:08:13;;;;;;;1.83;0.90;;;;;;;;;;4932870;29;20825;-69
2024/01/26 10:10:41;;;;;;;2.50;1.10;;;;;;;;;;4916223;29;20667;-70
2024/01/26 10:13:07;;;;;;;2.20;1.00;;;;;;;;;;4935022;29;20561;-70
2024/01/26 10:15:33;;;;;;;2.73;1.30;;;12.30;1.00;;;;;;4937713;29;20526;-71
2024/01/26 10:18:00;;;;;;;3.03;1.20;;;12.20;1.00;;;;;;4935286;29;20448;-69
2024/01/26 10:20:25;;;;;;;1.90;0.90;;;12.40;1.00;;;;;;4935389;29;20512;-70
2024/01/26 10:22:52;;;;;;;3.30;1.60;;;;;;;;;;4935270;29;20973;-70
2024/01/26 10:25:18;;;;;;;2.87;1.30;;;;;;;;;;4935988;29;20584;-70
2024/01/26 10:27:44;;;;;;;2.13;1.10;;;;;;;;;;4949818;28;20430;-70
2024/01/26 10:30:11;;;;;;;2.23;1.20;;;;;;;;;;4934140;29;20758;-68
2024/01/26 10:32:38;;;;;;;2.60;1.10;;;;;;;;;;4934994;29;20814;-72
2024/01/26 10:35:05;;;;;;;3.00;1.20;;;;;;;;;;4935057;29;20520;-70
2024/01/26 10:37:32;;;;;;;2.33;1.00;;;12.50;1.00;;;;;;4934901;29;20437;-68
2024/01/26 10:39:59;;;;;;;4.40;1.60;;;12.80;1.00;;;;;;4934224;29;20464;-70
2024/01/26 10:42:26;;;;;;;2.67;1.30;;;12.70;1.00;;;;;;4934354;29;20934;-69
2024/01/26 10:44:54;;;;;;;2.30;1.03;;;12.60;1.00;;;;;;4934488;29;20450;-69
2024/01/26 10:47:21;;;;;;;2.73;1.27;;;12.70;1.00;;;;;;4934879;29;20424;-71
2024/01/26 10:49:50;;;;;;;3.00;1.30;;;12.70;1.00;;;;;;4934468;29;20422;-71
2024/01/26 10:52:19;;;;;;;2.60;0.97;;;12.50;1.00;;;;;;4934313;29;20418;-70
2024/01/26 10:54:46;;;;;;;2.47;1.30;;;12.40;1.00;;;;;;4933917;29;20434;-69
2024/01/26 10:57:12;;;;;;;2.47;1.37;;;12.40;1.00;;;;;;4934773;29;20407;-71
2024/01/26 10:59:41;;;;;;;1.70;0.80;;;12.30;1.00;;;;;;4934643;29;20789;-70
2024/01/26 11:02:10;;;;;;;2.43;1.07;;;12.30;1.00;;;;;;4934886;29;20261;-71
2024/01/26 11:04:39;;;;;;;2.70;1.40;;;12.50;1.00;;;;;;4933983;29;20433;-70
2024/01/26 11:07:05;;;;;;;3.50;1.00;;;12.40;1.00;;;;;;4933093;29;20497;-70
2024/01/26 11:09:34;;;;;;;2.07;1.00;;;12.40;1.00;;;;;;4933788;29;20453;-73
2024/01/26 11:12:02;;;;;;;2.70;1.40;;;12.30;1.00;;;;;;4933476;29;20903;-70
2024/01/26 11:14:31;;;;;;;2.00;1.20;;;12.10;1.00;;;;;;4932982;29;20976;-69
2024/01/26 11:17:08;;;;;;;2.40;1.20;;;12.20;1.00;;;;;;4932332;29;20443;-70
2024/01/26 11:19:34;;;;;;;4.77;1.20;;;12.10;1.00;;;;;;4932443;29;20441;-70
2024/01/26 11:22:04;;;;;;;3.30;1.57;;;12.10;1.00;;;;;;4936269;29;20957;-70
2024/01/26 11:24:32;;;;;;;3.27;1.70;;;12.20;1.00;;;;;;4936701;29;20185;-69
2024/01/26 11:27:01;;;;;;;4.00;1.20;;;12.20;1.00;;;;;;4936570;29;20442;-71
2024/01/26 11:29:33;;;;;;;2.17;1.00;;;12.30;1.00;;;;;;4936674;29;20993;-71
2024/01/26 11:31:59;;;;;;;2.30;1.47;;;12.30;1.00;;;;;;4936589;29;20430;-71
2024/01/26 11:34:25;;;;;;;3.07;1.37;;;12.40;1.00;;;;;;4936386;29;20481;-71
2024/01/26 11:37:11;;;;;;;2.67;1.17;;;12.30;1.00;;;;;;4936347;29;20599;-71
2024/01/26 11:39:38;;;;;;;2.50;1.30;;;12.30;1.00;;;;;;4935825;29;20182;-70
2024/01/26 11:42:09;;;;;;;3.00;1.27;;;12.30;1.00;;;;;;4936417;29;20425;-70
2024/01/26 11:44:40;;;;;;;5.03;1.50;;;12.20;1.00;;;;;;4936281;29;20501;-70
2024/01/26 11:47:08;;;;;;;2.03;1.23;;;12.20;1.00;;;;;;4936292;29;20414;-70
2024/01/26 11:49:33;;;;;;;4.00;1.90;;;12.10;1.00;;;;;;4936046;29;20426;-70
2024/01/26 11:51:59;;;;;;;2.90;1.30;;;12.20;1.00;;;;;;4935958;29;20509;-70
2024/01/26 11:54:25;;;;;;;3.50;1.50;;;12.20;1.00;;;;;;4936031;29;20220;-71
2024/01/26 11:56:50;;;;;;;2.93;1.00;;;12.20;1.00;;;;;;4936153;29;20287;-70
2024/01/26 11:59:16;;;;;;;2.40;1.50;;;12.20;1.00;;;;;;4930961;29;20185;-70
2024/01/26 12:01:42;;;;;;;1.80;0.80;;;12.30;1.00;;;;;;4936204;29;20185;-70
2024/01/26 12:04:08;;;;;;;2.23;1.17;;;12.30;1.00;;;;;;4935328;29;20427;-71
2024/01/26 12:06:33;;;;;;;2.30;1.23;;;12.30;1.00;;;;;;4901452;29;1036597;-71
2024/01/26 12:08:59;;;;;;;4.03;1.47;;;12.20;1.00;;;;;;4936901;29;20189;-69
2024/01/26 12:11:25;;;;;;;2.53;1.13;;;12.20;2.20;;;;;;4936788;29;20194;-70
2024/01/26 12:13:52;;;;;;;2.23;1.30;;;12.20;2.20;;;;;;4937160;29;20206;-70
2024/01/26 12:16:22;;;;;;;2.40;1.10;;;12.20;2.20;;;;;;4936684;29;20443;-72
2024/01/26 12:18:48;;;;;;;2.43;1.47;;;12.20;2.20;;;;;;4936610;29;20929;-70
2024/01/26 12:21:14;;;;;;;9.40;1.27;;;12.20;2.20;;;;;;4937002;29;20414;-69
2024/01/26 12:23:40;;;;;;;2.43;1.00;;;12.30;2.30;;;;;;4936845;29;20194;-70
2024/01/26 12:26:09;;;;;;;2.73;1.30;;;12.30;2.30;;;;;;4936646;29;20994;-70
2024/01/26 12:28:34;;;;;;;2.63;1.17;;;12.20;2.20;;;;;;4936761;29;20190;-69
2024/01/26 12:31:00;;;;;;;4.47;1.10;;;12.20;2.20;;;;;;4936594;29;20426;-70
2024/01/26 12:33:26;;;;;;;2.00;1.30;;;12.20;2.20;;;;;;4935580;29;20258;-70
2024/01/26 12:35:52;;;;;;;2.10;1.20;;;12.20;2.20;;;;;;4936574;29;20259;-70
2024/01/26 12:38:18;;;;;;;3.97;1.50;;;12.10;2.90;;;;;;4937237;29;20212;-72
2024/01/26 12:40:44;;;;;;;2.10;1.20;;;12.20;2.80;;;;;;4937011;29;20432;-73
2024/01/26 12:43:11;;;;;;;2.00;1.00;;;12.20;2.90;;;;;;4942136;29;20421;-71
2024/01/26 12:45:37;;;;;;;3.57;1.43;;;12.20;3.10;;;;;;4940578;29;20980;-71
2024/01/26 12:48:04;;;;;;;2.13;1.00;;;12.20;3.10;;;;;;4942366;29;20429;-70
2024/01/26 12:50:30;;;;;;;2.00;1.20;;;12.10;3.50;;;;;;4944576;29;20183;-70
2024/01/26 12:52:55;;;;;;;2.10;1.10;;;12.10;4.40;;;;;;4943037;29;20964;-70
2024/01/26 12:55:23;;;;;;;2.43;1.13;;;12.00;4.80;;;;;;4942722;29;20213;-70
2024/01/26 12:57:48;;;;;;;2.33;1.00;;;12.00;4.50;;;;;;4940259;29;20211;-72
2024/01/26 13:00:17;;;;;;;4.47;1.40;;;12.00;5.10;;;;;;4936212;29;20449;-72
2024/01/26 13:02:42;;;;;;;2.93;1.30;;;12.00;5.60;;;;;;4937067;29;20647;-71
2024/01/26 13:05:08;;;;;;;2.13;0.90;;;12.00;5.90;;;;;;4936056;29;20469;-71
2024/01/26 13:07:34;;;;;;;2.47;1.77;;;12.00;6.60;;;;;;4936021;29;20173;-71